RYR464 LGAV-LGSR
Flight info
| Callsign | RYR464 |
|---|---|
| Flight time | 0h 27m |
| Altitude | 19000 |
| Route | KEA L607 NETIS M601 PEXAN |
| Aircraft | B738/M-SDE2E3FGHIRWXY/LB1 |
Departure
| Time | 2026-04-25 08:56 |
|---|---|
| Airport | Athens Eleftherios Venizelos International Airport (LGAV) |
Arrival
| Time | 2026-04-25 09:23 |
|---|---|
| Airport | Santorini International Airport (LGSR) |
| Time | Latitude | Longitude | Altitude | Speed | Heading |
|---|---|---|---|---|---|
| 2026-04-25 08:39 | 37.93144 | 23.94369 | 300 ft | 0 kts | 217° |
| 2026-04-25 08:46 | 37.93159 | 23.94384 | 302 ft | 3 kts | 217° |
| 2026-04-25 08:46 | 37.93173 | 23.94397 | 303 ft | 3 kts | 215° |
| 2026-04-25 08:47 | 37.93190 | 23.94410 | 302 ft | 3 kts | 198° |
| 2026-04-25 08:47 | 37.93206 | 23.94412 | 304 ft | 3 kts | 149° |
| 2026-04-25 08:47 | 37.93218 | 23.94397 | 301 ft | 3 kts | 127° |
| 2026-04-25 08:47 | 37.93225 | 23.94384 | 301 ft | 1 kts | 127° |
| 2026-04-25 08:51 | 37.93202 | 23.94423 | 302 ft | 12 kts | 127° |
| 2026-04-25 08:51 | 37.93134 | 23.94540 | 302 ft | 21 kts | 127° |
| 2026-04-25 08:51 | 37.93054 | 23.94669 | 300 ft | 16 kts | 146° |
| 2026-04-25 08:52 | 37.92957 | 23.94624 | 300 ft | 16 kts | 217° |
| 2026-04-25 08:52 | 37.92873 | 23.94543 | 301 ft | 15 kts | 217° |
| 2026-04-25 08:52 | 37.92791 | 23.94467 | 303 ft | 14 kts | 216° |
| 2026-04-25 08:52 | 37.92713 | 23.94394 | 302 ft | 14 kts | 218° |
| 2026-04-25 08:53 | 37.92639 | 23.94322 | 305 ft | 13 kts | 217° |
| 2026-04-25 08:53 | 37.92567 | 23.94255 | 302 ft | 13 kts | 216° |
| 2026-04-25 08:53 | 37.92499 | 23.94189 | 304 ft | 12 kts | 219° |
| 2026-04-25 08:53 | 37.92424 | 23.94176 | 304 ft | 12 kts | 140° |
| 2026-04-25 08:54 | 37.92410 | 23.94222 | 303 ft | 0 kts | 84° |
| 2026-04-25 08:54 | 37.92411 | 23.94234 | 304 ft | 4 kts | 85° |
| 2026-04-25 08:54 | 37.92415 | 23.94299 | 307 ft | 10 kts | 85° |
| 2026-04-25 08:55 | 37.92436 | 23.94406 | 309 ft | 12 kts | 41° |
| 2026-04-25 08:55 | 37.92461 | 23.94430 | 308 ft | 1 kts | 34° |
| 2026-04-25 08:55 | 37.92608 | 23.94569 | 307 ft | 63 kts | 37° |
| 2026-04-25 08:55 | 37.93153 | 23.95086 | 296 ft | 129 kts | 37° |
| 2026-04-25 08:56 | 37.93947 | 23.95847 | 699 ft | 149 kts | 38° |
| 2026-04-25 08:56 | 37.94758 | 23.96615 | 1665 ft | 142 kts | 36° |
| 2026-04-25 08:56 | 37.95559 | 23.97380 | 2399 ft | 146 kts | 36° |
| 2026-04-25 08:56 | 37.96347 | 23.98135 | 3336 ft | 141 kts | 36° |
| 2026-04-25 08:57 | 37.97171 | 23.98926 | 3944 ft | 162 kts | 37° |
| 2026-04-25 08:57 | 37.98165 | 23.99882 | 4244 ft | 194 kts | 37° |
| 2026-04-25 08:57 | 37.99293 | 24.01051 | 4498 ft | 222 kts | 49° |
| 2026-04-25 08:57 | 37.99901 | 24.02956 | 4817 ft | 251 kts | 84° |
| 2026-04-25 08:58 | 37.99548 | 24.05158 | 5564 ft | 262 kts | 114° |
| 2026-04-25 08:58 | 37.98434 | 24.06985 | 6578 ft | 264 kts | 135° |
| 2026-04-25 08:58 | 37.97484 | 24.07954 | 7174 ft | 266 kts | 141° |
| 2026-04-25 08:58 | 37.95941 | 24.09306 | 7918 ft | 272 kts | 144° |
| 2026-04-25 08:59 | 37.94347 | 24.10628 | 8787 ft | 275 kts | 144° |
| 2026-04-25 08:59 | 37.92209 | 24.12401 | 9882 ft | 280 kts | 144° |
| 2026-04-25 08:59 | 37.90561 | 24.13783 | 10423 ft | 293 kts | 143° |
| 2026-04-25 08:59 | 37.88795 | 24.15280 | 10616 ft | 318 kts | 143° |
| 2026-04-25 09:00 | 37.87523 | 24.16365 | 10745 ft | 333 kts | 144° |
| 2026-04-25 09:00 | 37.85568 | 24.18037 | 11252 ft | 344 kts | 144° |
| 2026-04-25 09:00 | 37.83579 | 24.19744 | 12010 ft | 346 kts | 143° |
| 2026-04-25 09:00 | 37.81572 | 24.21470 | 12755 ft | 351 kts | 143° |
| 2026-04-25 09:01 | 37.79537 | 24.23225 | 13516 ft | 356 kts | 143° |
| 2026-04-25 09:01 | 37.77483 | 24.24997 | 14265 ft | 359 kts | 143° |
| 2026-04-25 09:01 | 37.75408 | 24.26788 | 14997 ft | 363 kts | 143° |
| 2026-04-25 09:01 | 37.73338 | 24.28575 | 15725 ft | 367 kts | 143° |
| 2026-04-25 09:02 | 37.71217 | 24.30405 | 16454 ft | 371 kts | 143° |
| 2026-04-25 09:02 | 37.69074 | 24.32253 | 17151 ft | 376 kts | 143° |
| 2026-04-25 09:02 | 37.66900 | 24.34127 | 17872 ft | 380 kts | 143° |
| 2026-04-25 09:02 | 37.64706 | 24.36016 | 18547 ft | 384 kts | 143° |
| 2026-04-25 09:03 | 37.62495 | 24.37919 | 18962 ft | 386 kts | 143° |
| 2026-04-25 09:03 | 37.60284 | 24.39820 | 19006 ft | 384 kts | 143° |
| 2026-04-25 09:03 | 37.58072 | 24.41721 | 19008 ft | 385 kts | 143° |
| 2026-04-25 09:03 | 37.55853 | 24.43626 | 19017 ft | 385 kts | 143° |
| 2026-04-25 09:04 | 37.53636 | 24.45529 | 19027 ft | 385 kts | 143° |
| 2026-04-25 09:04 | 37.51420 | 24.47429 | 19025 ft | 385 kts | 143° |
| 2026-04-25 09:04 | 37.49207 | 24.49326 | 19026 ft | 385 kts | 144° |
| 2026-04-25 09:04 | 37.46992 | 24.51224 | 19023 ft | 385 kts | 144° |
| 2026-04-25 09:05 | 37.44775 | 24.53121 | 19021 ft | 385 kts | 144° |
| 2026-04-25 09:05 | 37.42584 | 24.54995 | 19020 ft | 385 kts | 144° |
| 2026-04-25 09:05 | 37.40375 | 24.56882 | 19012 ft | 381 kts | 144° |
| 2026-04-25 09:05 | 37.38217 | 24.58723 | 19003 ft | 366 kts | 144° |
| 2026-04-25 09:06 | 37.36131 | 24.60501 | 18948 ft | 360 kts | 144° |
| 2026-04-25 09:06 | 37.34063 | 24.62265 | 18691 ft | 358 kts | 144° |
| 2026-04-25 09:06 | 37.32035 | 24.63994 | 18465 ft | 355 kts | 144° |
| 2026-04-25 09:06 | 37.29998 | 24.65730 | 18224 ft | 353 kts | 144° |
| 2026-04-25 09:07 | 37.27965 | 24.67461 | 17959 ft | 352 kts | 144° |
| 2026-04-25 09:07 | 37.25942 | 24.69182 | 17699 ft | 351 kts | 144° |
| 2026-04-25 09:07 | 37.23922 | 24.70899 | 17328 ft | 348 kts | 144° |
| 2026-04-25 09:07 | 37.21918 | 24.72601 | 16913 ft | 344 kts | 144° |
| 2026-04-25 09:08 | 37.19944 | 24.74276 | 16475 ft | 342 kts | 144° |
| 2026-04-25 09:08 | 37.17983 | 24.75940 | 16049 ft | 339 kts | 144° |
| 2026-04-25 09:08 | 37.16034 | 24.77592 | 15625 ft | 337 kts | 144° |
| 2026-04-25 09:08 | 37.14101 | 24.79230 | 15196 ft | 334 kts | 143° |
| 2026-04-25 09:09 | 37.12176 | 24.80860 | 14778 ft | 332 kts | 143° |
| 2026-04-25 09:09 | 37.10266 | 24.82477 | 14365 ft | 331 kts | 143° |
| 2026-04-25 09:09 | 37.08363 | 24.84087 | 13946 ft | 329 kts | 143° |
| 2026-04-25 09:09 | 37.06493 | 24.85667 | 13505 ft | 328 kts | 144° |
| 2026-04-25 09:10 | 37.04611 | 24.87258 | 13058 ft | 326 kts | 144° |
| 2026-04-25 09:10 | 37.02738 | 24.88839 | 12630 ft | 323 kts | 144° |
| 2026-04-25 09:10 | 37.00875 | 24.90411 | 12215 ft | 321 kts | 144° |
| 2026-04-25 09:10 | 36.99034 | 24.91963 | 11790 ft | 318 kts | 144° |
| 2026-04-25 09:11 | 36.95384 | 24.95037 | 11008 ft | 314 kts | 144° |
| 2026-04-25 09:11 | 36.93579 | 24.96557 | 10624 ft | 312 kts | 144° |
| 2026-04-25 09:11 | 36.91806 | 24.98048 | 10474 ft | 301 kts | 144° |
| 2026-04-25 09:12 | 36.90091 | 24.99488 | 10331 ft | 292 kts | 144° |
| 2026-04-25 09:12 | 36.88436 | 25.00878 | 10202 ft | 282 kts | 144° |
| 2026-04-25 09:12 | 36.86836 | 25.02222 | 10091 ft | 273 kts | 144° |
| 2026-04-25 09:12 | 36.85286 | 25.03523 | 9948 ft | 266 kts | 144° |
| 2026-04-25 09:13 | 36.83752 | 25.04812 | 9625 ft | 265 kts | 144° |
| 2026-04-25 09:13 | 36.82246 | 25.06075 | 9342 ft | 263 kts | 144° |
| 2026-04-25 09:13 | 36.80729 | 25.07348 | 9063 ft | 261 kts | 144° |
| 2026-04-25 09:13 | 36.79226 | 25.08608 | 8777 ft | 260 kts | 144° |
| 2026-04-25 09:14 | 36.77728 | 25.09864 | 8500 ft | 258 kts | 144° |
| 2026-04-25 09:14 | 36.76241 | 25.11108 | 8218 ft | 256 kts | 144° |
| 2026-04-25 09:14 | 36.74767 | 25.12342 | 7945 ft | 254 kts | 144° |
| 2026-04-25 09:14 | 36.73302 | 25.13568 | 7676 ft | 253 kts | 144° |
| 2026-04-25 09:15 | 36.71860 | 25.14774 | 7408 ft | 252 kts | 144° |
| 2026-04-25 09:15 | 36.70402 | 25.15991 | 7148 ft | 252 kts | 144° |
| 2026-04-25 09:15 | 36.68948 | 25.17223 | 6862 ft | 252 kts | 140° |
| 2026-04-25 09:15 | 36.67866 | 25.18895 | 6579 ft | 248 kts | 115° |
| 2026-04-25 09:16 | 36.67295 | 25.20906 | 6317 ft | 246 kts | 105° |
| 2026-04-25 09:16 | 36.66870 | 25.22969 | 6020 ft | 245 kts | 104° |
| 2026-04-25 09:16 | 36.66460 | 25.25028 | 5738 ft | 244 kts | 104° |
| 2026-04-25 09:16 | 36.66043 | 25.27067 | 5471 ft | 241 kts | 104° |
| 2026-04-25 09:17 | 36.65190 | 25.31101 | 4929 ft | 240 kts | 105° |
| 2026-04-25 09:17 | 36.64761 | 25.33104 | 4668 ft | 238 kts | 105° |
| 2026-04-25 09:17 | 36.64307 | 25.35036 | 4403 ft | 236 kts | 113° |
| 2026-04-25 09:18 | 36.63309 | 25.36642 | 4139 ft | 237 kts | 139° |
| 2026-04-25 09:18 | 36.61878 | 25.37627 | 4035 ft | 232 kts | 155° |
| 2026-04-25 09:18 | 36.60415 | 25.38314 | 3965 ft | 216 kts | 156° |
| 2026-04-25 09:18 | 36.59034 | 25.38940 | 3674 ft | 207 kts | 156° |
| 2026-04-25 09:19 | 36.57727 | 25.39541 | 3515 ft | 192 kts | 155° |
| 2026-04-25 09:19 | 36.56507 | 25.40108 | 3404 ft | 183 kts | 155° |
| 2026-04-25 09:19 | 36.55325 | 25.40662 | 3123 ft | 182 kts | 154° |
| 2026-04-25 09:19 | 36.54132 | 25.41223 | 2763 ft | 184 kts | 154° |
| 2026-04-25 09:20 | 36.52947 | 25.41781 | 2426 ft | 185 kts | 154° |
| 2026-04-25 09:20 | 36.51750 | 25.42344 | 2202 ft | 178 kts | 154° |
| 2026-04-25 09:20 | 36.50613 | 25.42880 | 2156 ft | 176 kts | 154° |
| 2026-04-25 09:20 | 36.49470 | 25.43417 | 1913 ft | 174 kts | 154° |
| 2026-04-25 09:21 | 36.48345 | 25.43947 | 1667 ft | 173 kts | 155° |
| 2026-04-25 09:21 | 36.47231 | 25.44471 | 1455 ft | 170 kts | 154° |
| 2026-04-25 09:21 | 36.46129 | 25.44990 | 1216 ft | 169 kts | 154° |
| 2026-04-25 09:21 | 36.45061 | 25.45491 | 1015 ft | 157 kts | 154° |
| 2026-04-25 09:22 | 36.44058 | 25.45962 | 796 ft | 153 kts | 154° |
| 2026-04-25 09:22 | 36.43082 | 25.46421 | 575 ft | 147 kts | 154° |
| 2026-04-25 09:22 | 36.42126 | 25.46872 | 396 ft | 145 kts | 154° |
| 2026-04-25 09:22 | 36.41189 | 25.47312 | 182 ft | 146 kts | 151° |
| 2026-04-25 09:23 | 36.40245 | 25.47765 | 89 ft | 131 kts | 158° |
| 2026-04-25 09:23 | 36.39594 | 25.48066 | 73 ft | 68 kts | 160° |
| 2026-04-25 09:23 | 36.39237 | 25.48236 | 61 ft | 51 kts | 159° |
| 2026-04-25 09:23 | 36.39059 | 25.48315 | 53 ft | 11 kts | 181° |
| 2026-04-25 09:24 | 36.39034 | 25.48302 | 55 ft | 1 kts | 227° |
| 2026-04-25 09:24 | 36.39006 | 25.48197 | 55 ft | 17 kts | 287° |
| 2026-04-25 09:24 | 36.39097 | 25.48137 | 58 ft | 15 kts | 341° |
| 2026-04-25 09:24 | 36.39192 | 25.48094 | 58 ft | 14 kts | 338° |
| 2026-04-25 09:25 | 36.39282 | 25.48048 | 63 ft | 14 kts | 338° |
| 2026-04-25 09:25 | 36.39369 | 25.48006 | 62 ft | 13 kts | 339° |
| 2026-04-25 09:25 | 36.39453 | 25.47966 | 64 ft | 13 kts | 339° |
| 2026-04-25 09:25 | 36.39535 | 25.47926 | 68 ft | 12 kts | 339° |
| 2026-04-25 09:26 | 36.39614 | 25.47887 | 76 ft | 12 kts | 338° |
| 2026-04-25 09:26 | 36.39692 | 25.47849 | 82 ft | 12 kts | 338° |
| 2026-04-25 09:26 | 36.39767 | 25.47814 | 85 ft | 11 kts | 339° |
| 2026-04-25 09:26 | 36.39841 | 25.47779 | 86 ft | 11 kts | 339° |
| 2026-04-25 09:27 | 36.39913 | 25.47745 | 87 ft | 11 kts | 339° |
| 2026-04-25 09:27 | 36.39983 | 25.47712 | 88 ft | 11 kts | 339° |
| 2026-04-25 09:27 | 36.40051 | 25.47681 | 87 ft | 10 kts | 341° |
| 2026-04-25 09:27 | 36.40117 | 25.47652 | 89 ft | 10 kts | 335° |
| 2026-04-25 09:28 | 36.40126 | 25.47578 | 87 ft | 10 kts | 264° |
| 2026-04-25 09:28 | 36.40171 | 25.47528 | 89 ft | 9 kts | 339° |
| 2026-04-25 09:28 | 36.40231 | 25.47499 | 90 ft | 9 kts | 339° |
| 2026-04-25 09:28 | 36.40289 | 25.47472 | 89 ft | 9 kts | 339° |
| 2026-04-25 09:29 | 36.40312 | 25.47428 | 89 ft | 6 kts | 255° |
| 2026-04-25 09:29 | 36.40305 | 25.47404 | 90 ft | 1 kts | 250° |
| 2026-04-25 09:29 | 36.40305 | 25.47402 | 92 ft | 0 kts | 250° |